Terminal Aerodrome Forecast
Issued by NWS Sterling, VA

Current Version | Previous Version | Text Only | Print | Product List | Glossary Off
Versions: 1 2 3 4 5 6 7 8 9 10 11 12 13 14 15 16 17 18 19 20 21 22 23 24

000
FTUS41 KLWX 090500
TAFDCA
TAF
KDCA 090532Z 0906/1006 25004KT P6SM BKN070
     FM090800 VRB03KT P6SM SCT070
     FM091600 24005KT P6SM VCTS FEW050CB SCT070
     FM091700 22007KT P6SM VCTS BKN050CB BKN070
     FM091800 21007KT P6SM BKN050 BKN070
     FM092000 23007KT P6SM FEW050 SCT070
     FM100000 VRB03KT P6SM FEW050 SCT070=

USA.gov is the U.S. government's official web portal to all federal, state and local government web resources and services.